createdAt,value
2018-05-13T00:00:42.892Z,0
2018-05-13T00:01:44.758Z,0
2018-05-13T00:02:46.801Z,0
2018-05-13T00:03:48.693Z,0
2018-05-13T00:04:50.855Z,0
2018-05-13T00:05:52.631Z,0
2018-05-13T00:06:54.246Z,0
2018-05-13T00:07:56.564Z,0
2018-05-13T00:08:58.193Z,0
2018-05-13T00:09:59.811Z,0
2018-05-13T00:11:01.610Z,0
2018-05-13T00:12:03.219Z,0
2018-05-13T00:13:04.838Z,0
2018-05-13T00:14:06.452Z,0
2018-05-13T00:15:09.189Z,0
2018-05-13T00:16:12.308Z,0
2018-05-13T00:17:14.837Z,0
2018-05-13T00:18:16.907Z,0
2018-05-13T00:19:19.214Z,0
2018-05-13T00:20:21.007Z,0
2018-05-13T00:21:22.808Z,0
2018-05-13T00:22:25.229Z,0
2018-05-13T00:23:27.585Z,0
2018-05-13T00:24:29.892Z,0
2018-05-13T00:25:32.259Z,0
2018-05-13T00:26:34.687Z,0
2018-05-13T00:27:38.367Z,0
2018-05-13T00:28:41.343Z,0
2018-05-13T00:29:44.085Z,0
2018-05-13T00:30:47.259Z,0
2018-05-13T00:31:50.191Z,0
2018-05-13T00:32:51.777Z,0
2018-05-13T00:33:53.394Z,0
2018-05-13T00:34:55.008Z,0
2018-05-13T00:35:57.710Z,0
2018-05-13T00:37:01.076Z,0
2018-05-13T00:38:03.698Z,0
2018-05-13T00:39:06.175Z,0
2018-05-13T00:40:07.793Z,0
2018-05-13T00:41:09.412Z,0
2018-05-13T00:42:11.024Z,0
2018-05-13T00:43:12.641Z,0
2018-05-13T00:44:14.260Z,0
2018-05-13T00:45:15.912Z,0
2018-05-13T00:46:17.490Z,0
2018-05-13T00:47:19.104Z,0
2018-05-13T00:48:20.716Z,0
2018-05-13T00:49:22.331Z,0
2018-05-13T00:50:23.952Z,0
2018-05-13T00:51:25.566Z,0
2018-05-13T00:52:27.186Z,0
2018-05-13T00:53:28.798Z,0
2018-05-13T00:54:30.417Z,0
2018-05-13T00:55:32.027Z,0
2018-05-13T00:56:33.641Z,0
2018-05-13T00:57:35.259Z,0
2018-05-13T00:58:36.879Z,0
2018-05-13T00:59:38.494Z,0
2018-05-13T01:00:40.114Z,0
2018-05-13T01:01:41.720Z,0
2018-05-13T01:02:43.341Z,0
2018-05-13T01:03:44.949Z,0
2018-05-13T01:04:46.571Z,0
2018-05-13T01:05:48.188Z,0
2018-05-13T01:06:49.807Z,0
2018-05-13T01:07:51.415Z,0
2018-05-13T01:08:53.033Z,0
2018-05-13T01:09:54.648Z,0
2018-05-13T01:10:56.263Z,0
2018-05-13T01:11:57.878Z,0
2018-05-13T01:12:59.497Z,0
2018-05-13T01:14:01.109Z,0
2018-05-13T01:15:02.726Z,0
2018-05-13T01:16:04.336Z,0
2018-05-13T01:17:05.951Z,0
2018-05-13T01:18:07.561Z,0
2018-05-13T01:19:09.178Z,0
2018-05-13T01:20:10.791Z,0
2018-05-13T01:21:12.409Z,0
2018-05-13T01:22:14.022Z,0
2018-05-13T01:23:15.630Z,0
2018-05-13T01:24:17.242Z,0
2018-05-13T01:25:18.861Z,0
2018-05-13T01:26:20.472Z,0
2018-05-13T01:27:22.084Z,0
2018-05-13T01:28:23.708Z,0
2018-05-13T01:29:25.361Z,0
2018-05-13T01:30:26.934Z,0
2018-05-13T01:31:28.546Z,0
2018-05-13T01:32:30.159Z,0
2018-05-13T01:33:31.776Z,0
2018-05-13T01:34:33.396Z,0
2018-05-13T01:35:35.009Z,0
2018-05-13T01:36:36.618Z,0
2018-05-13T01:37:38.235Z,0
2018-05-13T01:38:39.843Z,0
2018-05-13T01:39:41.464Z,0
2018-05-13T01:40:43.081Z,0
2018-05-13T01:41:44.696Z,0
2018-05-13T01:42:46.314Z,0
2018-05-13T01:43:47.927Z,0
2018-05-13T01:44:49.538Z,0
2018-05-13T01:45:51.148Z,0
2018-05-13T01:46:52.765Z,0
2018-05-13T01:47:54.412Z,0
2018-05-13T01:48:55.989Z,0
2018-05-13T01:49:57.608Z,0
2018-05-13T01:50:59.216Z,0
2018-05-13T01:52:00.832Z,0
2018-05-13T01:53:02.447Z,0
2018-05-13T01:54:07.012Z,0
2018-05-13T01:55:08.630Z,0
2018-05-13T01:56:10.243Z,0
2018-05-13T01:57:11.859Z,0
2018-05-13T01:58:13.470Z,0
2018-05-13T01:59:15.081Z,0
2018-05-13T02:00:16.693Z,0
2018-05-13T02:01:18.308Z,0
2018-05-13T02:02:19.922Z,0
2018-05-13T02:03:21.535Z,0
2018-05-13T02:04:23.155Z,0
2018-05-13T02:05:24.767Z,0
2018-05-13T02:06:26.380Z,0
2018-05-13T02:07:27.993Z,0
2018-05-13T02:08:29.610Z,0
2018-05-13T02:09:31.221Z,0
2018-05-13T02:10:32.838Z,0
2018-05-13T02:11:34.453Z,0
2018-05-13T02:12:36.062Z,0
2018-05-13T02:13:37.678Z,0
2018-05-13T02:14:39.287Z,0
2018-05-13T02:15:40.906Z,0
2018-05-13T02:16:42.518Z,0
2018-05-13T02:17:44.138Z,0
2018-05-13T02:18:45.756Z,0
2018-05-13T02:19:47.367Z,0
2018-05-13T02:20:48.977Z,0
2018-05-13T02:21:50.594Z,0
2018-05-13T02:22:52.203Z,0
2018-05-13T02:23:53.816Z,0
2018-05-13T02:24:55.438Z,0
2018-05-13T02:25:57.051Z,0
2018-05-13T02:26:58.667Z,0
2018-05-13T02:28:00.283Z,0
2018-05-13T02:29:01.891Z,0
2018-05-13T02:30:03.507Z,0
2018-05-13T02:31:05.127Z,0
2018-05-13T02:32:06.737Z,0
2018-05-13T02:33:08.348Z,0
2018-05-13T02:34:09.964Z,0
2018-05-13T02:35:11.575Z,0
2018-05-13T02:36:13.190Z,0
2018-05-13T02:37:14.819Z,0
2018-05-13T02:38:16.412Z,0
2018-05-13T02:39:18.031Z,0
2018-05-13T02:40:19.643Z,0
2018-05-13T02:41:21.255Z,0
2018-05-13T02:42:22.871Z,0
2018-05-13T02:43:24.480Z,0
2018-05-13T02:44:26.090Z,0
2018-05-13T02:45:27.706Z,0
2018-05-13T02:46:29.325Z,0
2018-05-13T02:47:30.936Z,0
2018-05-13T02:48:32.549Z,0
2018-05-13T02:49:34.163Z,0
2018-05-13T02:50:35.780Z,0
2018-05-13T02:51:37.391Z,0
2018-05-13T02:52:39.004Z,0
2018-05-13T02:53:40.624Z,0
2018-05-13T02:54:42.241Z,0
2018-05-13T02:55:43.850Z,0
2018-05-13T02:56:45.461Z,0
2018-05-13T02:57:47.077Z,0
2018-05-13T02:58:48.693Z,0
2018-05-13T02:59:50.306Z,0
2018-05-13T03:00:51.927Z,0
2018-05-13T03:01:53.538Z,0
2018-05-13T03:02:55.151Z,0
2018-05-13T03:03:56.766Z,0
2018-05-13T03:04:58.384Z,0
2018-05-13T03:05:59.991Z,0
2018-05-13T03:07:01.607Z,0
2018-05-13T03:08:03.221Z,0
2018-05-13T03:09:04.838Z,0
2018-05-13T03:10:06.446Z,0
2018-05-13T03:11:08.056Z,0
2018-05-13T03:12:09.672Z,0
2018-05-13T03:13:11.290Z,0
2018-05-13T03:14:12.899Z,0
2018-05-13T03:15:14.518Z,0
2018-05-13T03:16:16.146Z,0
2018-05-13T03:17:17.757Z,0
2018-05-13T03:18:19.368Z,0
2018-05-13T03:19:20.987Z,0
2018-05-13T03:20:22.600Z,0
2018-05-13T03:21:24.219Z,0
2018-05-13T03:22:25.830Z,0
2018-05-13T03:23:27.446Z,0
2018-05-13T03:24:29.056Z,0
2018-05-13T03:25:30.674Z,0
2018-05-13T03:26:32.284Z,0
2018-05-13T03:27:33.896Z,0
2018-05-13T03:28:35.510Z,0
2018-05-13T03:29:37.122Z,0
2018-05-13T03:30:38.740Z,0
2018-05-13T03:31:40.353Z,0
2018-05-13T03:32:41.966Z,0
2018-05-13T03:33:43.584Z,0
2018-05-13T03:34:45.194Z,0
2018-05-13T03:35:46.807Z,0
2018-05-13T03:36:48.427Z,0
2018-05-13T03:37:50.044Z,0
2018-05-13T03:38:51.658Z,0
2018-05-13T03:39:53.273Z,5
2018-05-13T03:40:54.890Z,5
2018-05-13T03:41:56.501Z,5
2018-05-13T03:42:58.125Z,5
2018-05-13T03:43:59.820Z,5
2018-05-13T03:45:01.446Z,5
2018-05-13T03:46:02.973Z,5
2018-05-13T03:47:04.583Z,5
2018-05-13T03:48:06.200Z,5
2018-05-13T03:49:07.815Z,5
2018-05-13T03:50:09.426Z,5
2018-05-13T03:51:11.047Z,5
2018-05-13T03:52:12.667Z,5
2018-05-13T03:53:14.280Z,5
2018-05-13T03:54:15.896Z,5
2018-05-13T03:55:17.509Z,5
2018-05-13T03:56:19.132Z,5
2018-05-13T03:57:20.742Z,5
2018-05-13T03:58:22.363Z,5
2018-05-13T03:59:23.978Z,5
2018-05-13T04:00:25.597Z,11
2018-05-13T04:01:27.212Z,11
2018-05-13T04:02:28.831Z,16
2018-05-13T04:03:30.446Z,16
2018-05-13T04:04:32.069Z,22
2018-05-13T04:05:33.689Z,28
2018-05-13T04:06:35.313Z,28
2018-05-13T04:07:36.931Z,33
2018-05-13T04:08:38.547Z,33
2018-05-13T04:09:40.168Z,33
2018-05-13T04:10:41.787Z,33
2018-05-13T04:11:43.405Z,39
2018-05-13T04:12:45.026Z,39
2018-05-13T04:13:46.649Z,39
2018-05-13T04:14:48.264Z,39
2018-05-13T04:15:49.888Z,45
2018-05-13T04:16:51.507Z,50
2018-05-13T04:17:53.123Z,56
2018-05-13T04:18:54.744Z,56
2018-05-13T04:19:56.369Z,61
2018-05-13T04:20:57.994Z,73
2018-05-13T04:21:59.608Z,78
2018-05-13T04:23:01.233Z,84
2018-05-13T04:24:02.846Z,90
2018-05-13T04:25:04.473Z,101
2018-05-13T04:26:06.093Z,106
2018-05-13T04:27:07.711Z,112
2018-05-13T04:28:09.338Z,123
2018-05-13T04:29:10.952Z,129
2018-05-13T04:30:12.576Z,129
2018-05-13T04:31:14.198Z,129
2018-05-13T04:32:15.821Z,135
2018-05-13T04:33:17.446Z,135
2018-05-13T04:34:19.065Z,135
2018-05-13T04:35:20.693Z,135
2018-05-13T04:36:22.305Z,135
2018-05-13T04:37:23.927Z,135
2018-05-13T04:38:25.542Z,140
2018-05-13T04:39:27.165Z,151
2018-05-13T04:40:28.784Z,157
2018-05-13T04:41:30.403Z,168
2018-05-13T04:42:32.025Z,180
2018-05-13T04:43:33.644Z,180
2018-05-13T04:44:35.263Z,180
2018-05-13T04:45:36.887Z,185
2018-05-13T04:46:38.506Z,185
2018-05-13T04:47:40.126Z,185
2018-05-13T04:48:41.756Z,185
2018-05-13T04:49:43.371Z,191
2018-05-13T04:50:44.998Z,196
2018-05-13T04:51:46.609Z,208
2018-05-13T04:52:48.233Z,219
2018-05-13T04:53:49.852Z,236
2018-05-13T04:54:51.479Z,247
2018-05-13T04:55:53.106Z,264
2018-05-13T04:56:54.722Z,275
2018-05-13T04:57:56.343Z,292
2018-05-13T04:58:57.963Z,303
2018-05-13T04:59:59.583Z,315
2018-05-13T05:01:01.209Z,320
2018-05-13T05:02:02.826Z,320
2018-05-13T05:03:04.455Z,320
2018-05-13T05:04:06.075Z,320
2018-05-13T05:05:07.699Z,320
2018-05-13T05:06:09.321Z,320
2018-05-13T05:07:10.943Z,320
2018-05-13T05:08:12.569Z,315
2018-05-13T05:09:14.190Z,315
2018-05-13T05:10:15.815Z,309
2018-05-13T05:11:17.434Z,303
2018-05-13T05:12:19.065Z,298
2018-05-13T05:13:20.676Z,298
2018-05-13T05:14:22.295Z,298
2018-05-13T05:15:23.915Z,298
2018-05-13T05:16:25.540Z,303
2018-05-13T05:17:27.162Z,320
2018-05-13T05:18:28.790Z,320
2018-05-13T05:19:30.413Z,326
2018-05-13T05:20:32.031Z,326
2018-05-13T05:21:33.650Z,326
2018-05-13T05:22:35.275Z,326
2018-05-13T05:23:36.894Z,326
2018-05-13T05:24:38.522Z,331
2018-05-13T05:25:40.146Z,331
2018-05-13T05:26:41.766Z,331
2018-05-13T05:27:43.386Z,331
2018-05-13T05:28:45.005Z,331
2018-05-13T05:29:46.637Z,331
2018-05-13T05:30:48.256Z,337
2018-05-13T05:31:49.878Z,331
2018-05-13T05:32:51.503Z,326
2018-05-13T05:33:53.125Z,320
2018-05-13T05:34:54.749Z,320
2018-05-13T05:35:56.374Z,315
2018-05-13T05:36:57.997Z,309
2018-05-13T05:37:59.616Z,315
2018-05-13T05:39:01.243Z,315
2018-05-13T05:40:02.871Z,320
2018-05-13T05:41:04.486Z,326
2018-05-13T05:42:06.106Z,331
2018-05-13T05:43:07.731Z,337
2018-05-13T05:44:09.348Z,343
2018-05-13T05:45:10.967Z,360
2018-05-13T05:46:12.593Z,360
2018-05-13T05:47:14.224Z,365
2018-05-13T05:48:16.127Z,371
2018-05-13T05:49:17.687Z,376
2018-05-13T05:50:19.309Z,382
2018-05-13T05:51:20.928Z,388
2018-05-13T05:52:22.556Z,393
2018-05-13T05:53:24.238Z,405
2018-05-13T05:54:25.877Z,427
2018-05-13T05:55:27.501Z,455
2018-05-13T05:56:29.125Z,483
2018-05-13T05:57:30.752Z,506
2018-05-13T05:58:32.374Z,534
2018-05-13T05:59:33.989Z,562
2018-05-13T06:00:35.618Z,601
2018-05-13T06:01:37.235Z,630
2018-05-13T06:02:38.863Z,652
2018-05-13T06:03:40.479Z,675
2018-05-13T06:04:42.102Z,691
2018-05-13T06:05:43.727Z,714
2018-05-13T06:06:45.346Z,725
2018-05-13T06:07:46.975Z,720
2018-05-13T06:08:48.598Z,731
2018-05-13T06:09:50.217Z,759
2018-05-13T06:10:51.848Z,770
2018-05-13T06:11:53.459Z,798
2018-05-13T06:12:55.083Z,838
2018-05-13T06:13:56.710Z,855
2018-05-13T06:14:58.331Z,871
2018-05-13T06:15:59.960Z,877
2018-05-13T06:17:01.572Z,888
2018-05-13T06:18:03.202Z,883
2018-05-13T06:19:04.821Z,922
2018-05-13T06:20:06.482Z,900
2018-05-13T06:21:08.111Z,900
2018-05-13T06:22:09.747Z,961
2018-05-13T06:23:11.485Z,990
2018-05-13T06:24:13.108Z,1051
2018-05-13T06:25:14.861Z,1260
2018-05-13T06:26:16.376Z,1350
2018-05-13T06:27:18.013Z,1546
2018-05-13T06:28:19.643Z,1676
2018-05-13T06:29:21.274Z,1237
2018-05-13T06:30:22.902Z,1468
2018-05-13T06:31:24.523Z,1721
2018-05-13T06:32:26.149Z,1839
2018-05-13T06:33:27.772Z,2385
2018-05-13T06:34:29.399Z,2345
2018-05-13T06:35:31.027Z,1383
2018-05-13T06:36:32.677Z,2120
2018-05-13T06:37:34.308Z,2131
2018-05-13T06:38:35.942Z,2227
2018-05-13T06:39:37.606Z,2435
2018-05-13T06:40:39.209Z,2435
2018-05-13T06:41:40.839Z,1805
2018-05-13T06:42:42.469Z,1918
2018-05-13T06:43:48.396Z,1614
2018-05-13T06:44:49.620Z,2008
2018-05-13T06:45:51.253Z,2131
2018-05-13T06:46:52.880Z,1985
2018-05-13T06:47:54.506Z,1490
2018-05-13T06:48:56.125Z,1417
2018-05-13T06:49:57.757Z,2075
2018-05-13T06:50:59.412Z,2109
2018-05-13T06:52:01.021Z,2002
2018-05-13T06:53:02.647Z,1614
2018-05-13T06:54:04.276Z,1423
2018-05-13T06:55:06.500Z,1395
2018-05-13T06:56:08.126Z,1558
2018-05-13T06:57:09.901Z,1479
2018-05-13T06:58:11.533Z,1535
2018-05-13T06:59:13.159Z,1586
2018-05-13T07:00:14.811Z,1811
2018-05-13T07:01:16.458Z,2053
2018-05-13T07:02:18.085Z,2058
2018-05-13T07:03:19.729Z,2053
2018-05-13T07:04:21.366Z,1822
2018-05-13T07:05:23.012Z,1355
2018-05-13T07:06:24.707Z,1327
2018-05-13T07:07:26.331Z,1406
2018-05-13T07:08:27.994Z,1586
2018-05-13T07:09:29.617Z,1856
2018-05-13T07:10:31.251Z,1884
2018-05-13T07:11:32.892Z,2070
2018-05-13T07:12:34.543Z,1715
2018-05-13T07:13:36.165Z,1580
2018-05-13T07:14:37.800Z,1479
2018-05-13T07:15:39.427Z,1395
2018-05-13T07:16:41.054Z,1366
2018-05-13T07:17:42.689Z,1181
2018-05-13T07:18:44.315Z,1417
2018-05-13T07:19:45.947Z,1271
2018-05-13T07:20:47.577Z,1254
2018-05-13T07:21:49.200Z,1378
2018-05-13T07:22:50.826Z,1411
2018-05-13T07:23:52.448Z,990
2018-05-13T07:24:54.073Z,1389
2018-05-13T07:25:55.708Z,1620
2018-05-13T07:26:57.340Z,1575
2018-05-13T07:27:58.971Z,2047
2018-05-13T07:29:00.600Z,2261
2018-05-13T07:30:02.250Z,2441
2018-05-13T07:31:03.872Z,2795
2018-05-13T07:32:05.504Z,2863
2018-05-13T07:33:07.135Z,2795
2018-05-13T07:34:08.759Z,2885
2018-05-13T07:35:10.392Z,2896
2018-05-13T07:36:12.017Z,2874
2018-05-13T07:37:13.648Z,2683
2018-05-13T07:38:15.275Z,2413
2018-05-13T07:39:16.915Z,1901
2018-05-13T07:40:18.539Z,1935
2018-05-13T07:41:20.170Z,2103
2018-05-13T07:42:21.797Z,2081
2018-05-13T07:43:23.451Z,2396
2018-05-13T07:44:25.069Z,2469
2018-05-13T07:45:26.691Z,2351
2018-05-13T07:46:28.322Z,2070
2018-05-13T07:47:29.949Z,2041
2018-05-13T07:48:31.586Z,2188
2018-05-13T07:49:33.274Z,2109
2018-05-13T07:50:34.846Z,1901
2018-05-13T07:51:36.477Z,1687
2018-05-13T07:52:38.114Z,1569
2018-05-13T07:53:39.748Z,1524
2018-05-13T07:54:41.374Z,1485
2018-05-13T07:55:43.007Z,1468
2018-05-13T07:56:44.637Z,1490
2018-05-13T07:57:46.263Z,1473
2018-05-13T07:58:47.895Z,1496
2018-05-13T07:59:49.528Z,1417
2018-05-13T08:00:51.154Z,1417
2018-05-13T08:01:52.782Z,1423
2018-05-13T08:02:54.412Z,1411
2018-05-13T08:03:56.046Z,1395
2018-05-13T08:04:57.670Z,1378
2018-05-13T08:05:59.298Z,1344
2018-05-13T08:07:00.931Z,1333
2018-05-13T08:08:02.561Z,1333
2018-05-13T08:09:04.185Z,1366
2018-05-13T08:10:05.816Z,1406
2018-05-13T08:11:07.450Z,1485
2018-05-13T08:12:09.079Z,1546
2018-05-13T08:13:10.702Z,1580
2018-05-13T08:14:12.382Z,1625
2018-05-13T08:15:13.983Z,1614
2018-05-13T08:16:15.616Z,1732
2018-05-13T08:17:17.257Z,1811
2018-05-13T08:18:20.097Z,2193
2018-05-13T08:19:21.729Z,2463
2018-05-13T08:20:25.014Z,2846
2018-05-13T08:21:26.598Z,2205
2018-05-13T08:22:28.229Z,2199
2018-05-13T08:23:29.854Z,2340
2018-05-13T08:24:31.750Z,2047
2018-05-13T08:25:33.389Z,2058
2018-05-13T08:26:35.282Z,2047
2018-05-13T08:27:36.901Z,2497
2018-05-13T08:28:38.531Z,2857
2018-05-13T08:29:40.174Z,3560
2018-05-13T08:30:41.806Z,3144
2018-05-13T08:31:43.443Z,3673
2018-05-13T08:32:45.075Z,2941
2018-05-13T08:33:46.703Z,2756
2018-05-13T08:34:48.335Z,4516
2018-05-13T08:35:49.961Z,3690
2018-05-13T08:36:51.597Z,4899
2018-05-13T08:37:53.225Z,3588
2018-05-13T08:38:54.856Z,4545
2018-05-13T08:39:56.493Z,4381
2018-05-13T08:40:58.118Z,3285
2018-05-13T08:41:59.770Z,3476
2018-05-13T08:43:01.388Z,3583
2018-05-13T08:44:03.019Z,4365
2018-05-13T08:45:04.652Z,3459
2018-05-13T08:46:06.284Z,4854
2018-05-13T08:47:07.920Z,3678
2018-05-13T08:48:09.552Z,3358
2018-05-13T08:49:11.188Z,2497
2018-05-13T08:50:12.820Z,2255
2018-05-13T08:51:14.448Z,2019
2018-05-13T08:52:16.082Z,1777
2018-05-13T08:53:17.716Z,1631
2018-05-13T08:54:19.355Z,1665
2018-05-13T08:55:20.988Z,1428
2018-05-13T08:56:22.619Z,1271
2018-05-13T08:57:24.254Z,765
2018-05-13T08:58:25.886Z,1113
2018-05-13T08:59:27.518Z,1243
2018-05-13T09:00:29.155Z,1198
2018-05-13T09:01:30.785Z,1175
2018-05-13T09:02:32.418Z,1130
2018-05-13T09:03:34.047Z,1108
2018-05-13T09:04:35.679Z,1096
2018-05-13T09:05:37.313Z,1108
2018-05-13T09:06:38.941Z,1136
2018-05-13T09:07:40.574Z,1136
2018-05-13T09:08:42.202Z,1119
2018-05-13T09:09:43.827Z,1113
2018-05-13T09:10:45.462Z,1175
2018-05-13T09:11:47.109Z,1220
2018-05-13T09:12:48.718Z,1192
2018-05-13T09:13:50.353Z,1158
2018-05-13T09:14:51.977Z,1091
2018-05-13T09:15:53.631Z,1046
2018-05-13T09:16:55.260Z,1023
2018-05-13T09:17:56.886Z,1012
2018-05-13T09:18:58.515Z,1018
2018-05-13T09:20:00.146Z,1057
2018-05-13T09:21:01.777Z,1108
2018-05-13T09:22:03.417Z,1175
2018-05-13T09:23:05.120Z,1254
2018-05-13T09:24:06.667Z,1327
2018-05-13T09:25:08.299Z,1411
2018-05-13T09:26:09.928Z,1485
2018-05-13T09:27:11.551Z,1524
2018-05-13T09:28:13.183Z,1563
2018-05-13T09:29:14.813Z,1608
2018-05-13T09:30:16.445Z,1653
2018-05-13T09:31:18.068Z,1732
2018-05-13T09:32:19.699Z,1828
2018-05-13T09:33:21.326Z,1929
2018-05-13T09:34:22.960Z,2053
2018-05-13T09:35:24.584Z,2165
2018-05-13T09:36:26.214Z,2278
2018-05-13T09:37:27.841Z,2430
2018-05-13T09:38:29.469Z,2655
2018-05-13T09:39:31.098Z,2790
2018-05-13T09:40:32.730Z,3082
2018-05-13T09:41:34.360Z,3746
2018-05-13T09:42:35.985Z,4241
2018-05-13T09:43:37.623Z,5191
2018-05-13T09:44:39.250Z,5180
2018-05-13T09:45:40.883Z,4426
2018-05-13T09:46:42.512Z,6311
2018-05-13T09:47:44.147Z,6063
2018-05-13T09:48:45.775Z,5360
2018-05-13T09:49:47.411Z,5191
2018-05-13T09:50:49.044Z,5580
2018-05-13T09:51:50.680Z,4775
2018-05-13T09:52:52.309Z,3706
2018-05-13T09:53:53.945Z,3436
2018-05-13T09:54:55.576Z,3476
2018-05-13T09:55:57.211Z,3015
2018-05-13T09:56:58.849Z,2806
2018-05-13T09:58:00.491Z,2576
2018-05-13T09:59:02.199Z,2688
2018-05-13T10:00:03.758Z,2491
2018-05-13T10:01:05.393Z,2340
2018-05-13T10:02:07.021Z,2390
2018-05-13T10:03:08.661Z,2548
2018-05-13T10:04:10.382Z,2548
2018-05-13T10:05:11.926Z,2491
2018-05-13T10:06:13.566Z,2503
2018-05-13T10:07:15.204Z,2604
2018-05-13T10:08:16.837Z,2666
2018-05-13T10:09:18.470Z,2941
2018-05-13T10:10:20.105Z,3088
2018-05-13T10:11:21.740Z,2733
2018-05-13T10:12:23.377Z,2559
2018-05-13T10:13:25.015Z,2441
2018-05-13T10:14:26.644Z,2435
2018-05-13T10:15:28.274Z,2385
2018-05-13T10:16:29.959Z,2385
2018-05-13T10:17:31.548Z,2435
2018-05-13T10:18:33.182Z,2351
2018-05-13T10:19:34.853Z,2165
2018-05-13T10:20:36.449Z,1878
2018-05-13T10:21:38.077Z,1653
2018-05-13T10:22:39.720Z,1552
2018-05-13T10:23:41.346Z,1490
2018-05-13T10:24:42.977Z,1479
2018-05-13T10:25:44.607Z,1541
2018-05-13T10:26:46.239Z,1687
2018-05-13T10:27:47.872Z,1884
2018-05-13T10:28:49.500Z,2075
2018-05-13T10:29:51.137Z,2238
2018-05-13T10:30:52.762Z,2525
2018-05-13T10:31:54.401Z,3200
2018-05-13T10:32:56.029Z,2857
2018-05-13T10:33:57.665Z,2666
2018-05-13T10:34:59.296Z,2041
2018-05-13T10:36:00.926Z,2008
2018-05-13T10:37:02.555Z,2930
2018-05-13T10:38:04.187Z,2716
2018-05-13T10:39:05.816Z,2480
2018-05-13T10:40:07.463Z,2311
2018-05-13T10:41:09.080Z,2041
2018-05-13T10:42:10.721Z,1918
2018-05-13T10:43:12.350Z,2120
2018-05-13T10:44:13.974Z,2283
2018-05-13T10:45:15.605Z,2486
2018-05-13T10:46:17.235Z,2998
2018-05-13T10:47:18.874Z,2790
2018-05-13T10:48:20.500Z,2193
2018-05-13T10:49:22.138Z,1788
2018-05-13T10:50:23.763Z,1676
2018-05-13T10:51:25.399Z,1648
2018-05-13T10:52:27.034Z,1721
2018-05-13T10:53:28.660Z,1968
2018-05-13T10:54:30.297Z,1800
2018-05-13T10:55:31.925Z,1608
2018-05-13T10:56:33.554Z,1400
2018-05-13T10:57:35.186Z,1231
2018-05-13T10:58:36.815Z,984
2018-05-13T10:59:38.438Z,776
2018-05-13T11:00:40.069Z,590
2018-05-13T11:01:41.700Z,489
2018-05-13T11:02:43.333Z,438
2018-05-13T11:03:44.968Z,393
2018-05-13T11:04:46.671Z,393
2018-05-13T11:05:48.220Z,427
2018-05-13T11:06:49.847Z,483
2018-05-13T11:07:51.472Z,506
2018-05-13T11:08:53.097Z,495
2018-05-13T11:09:54.731Z,511
2018-05-13T11:10:56.359Z,540
2018-05-13T11:11:57.983Z,568
2018-05-13T11:12:59.614Z,618
2018-05-13T11:14:01.241Z,596
2018-05-13T11:15:02.867Z,663
2018-05-13T11:16:04.492Z,759
2018-05-13T11:17:06.117Z,765
2018-05-13T11:18:07.748Z,703
2018-05-13T11:19:09.373Z,703
2018-05-13T11:20:11.008Z,641
2018-05-13T11:21:12.616Z,601
2018-05-13T11:22:14.244Z,618
2018-05-13T14:06:36.665Z,556
2018-05-13T14:07:38.287Z,630
2018-05-13T14:09:30.005Z,590
2018-05-13T14:10:31.624Z,568
2018-05-13T14:12:23.325Z,1102
2018-05-13T14:13:24.947Z,1226
2018-05-13T14:15:16.665Z,916
2018-05-13T14:16:18.286Z,984
2018-05-13T14:18:09.984Z,939
2018-05-13T14:19:11.597Z,911
2018-05-13T14:21:03.314Z,916
2018-05-13T14:22:04.933Z,922
2018-05-13T14:23:56.656Z,736
2018-05-13T14:24:58.221Z,781
2018-05-13T14:26:49.947Z,905
2018-05-13T14:27:51.570Z,916
2018-05-13T14:29:43.276Z,849
2018-05-13T14:30:44.904Z,742
2018-05-13T14:32:36.619Z,871
2018-05-13T14:33:38.243Z,1023
2018-05-13T14:35:29.945Z,1006
2018-05-13T14:36:31.561Z,978
2018-05-13T14:38:23.290Z,866
2018-05-13T14:39:24.915Z,765
2018-05-13T14:41:16.706Z,905
2018-05-13T14:42:18.249Z,911
2018-05-13T14:44:09.981Z,849
2018-05-13T14:45:11.669Z,843
2018-05-13T14:47:03.396Z,787
2018-05-13T14:48:05.014Z,826
2018-05-13T14:49:56.741Z,742
2018-05-13T14:50:58.364Z,770
2018-05-13T14:52:50.063Z,900
2018-05-13T14:53:51.685Z,781
2018-05-13T14:55:43.417Z,691
2018-05-13T14:56:45.038Z,641
2018-05-13T14:58:36.741Z,630
2018-05-13T14:59:38.378Z,714
2018-05-13T15:01:30.095Z,652
2018-05-13T15:02:31.712Z,714
2018-05-13T15:04:23.417Z,680
2018-05-13T15:05:25.036Z,630
2018-05-13T15:07:16.770Z,590
2018-05-13T15:08:18.408Z,596
2018-05-13T15:10:10.178Z,551
2018-05-13T15:11:11.802Z,472
2018-05-13T15:13:03.527Z,371
2018-05-13T15:14:05.151Z,405
2018-05-13T15:15:56.855Z,506
2018-05-13T15:16:58.476Z,495
2018-05-13T15:18:50.209Z,427
2018-05-13T15:19:51.828Z,421
2018-05-13T15:21:43.526Z,511
2018-05-13T15:22:45.153Z,511
2018-05-13T15:24:36.878Z,421
2018-05-13T15:25:38.505Z,427
2018-05-13T15:27:30.201Z,410
2018-05-13T15:28:31.829Z,376
2018-05-13T15:30:23.540Z,376
2018-05-13T15:31:25.162Z,326
2018-05-13T15:33:16.865Z,270
2018-05-13T15:34:18.484Z,258
2018-05-13T15:36:10.207Z,253
2018-05-13T15:37:11.870Z,247
2018-05-13T15:39:03.538Z,286
2018-05-13T15:40:05.150Z,303
2018-05-13T15:41:56.971Z,348
2018-05-13T15:42:58.671Z,286
2018-05-13T15:44:50.284Z,219
2018-05-13T15:45:51.903Z,219
2018-05-13T15:47:44.480Z,230
2018-05-13T15:48:46.106Z,230
2018-05-13T15:50:37.803Z,241
2018-05-13T15:51:39.421Z,236
2018-05-13T15:53:31.147Z,230
2018-05-13T15:54:32.778Z,258
2018-05-13T15:56:24.482Z,292
2018-05-13T15:57:26.103Z,303
2018-05-13T15:59:17.819Z,382
2018-05-13T16:00:19.441Z,360
2018-05-13T16:02:11.990Z,253
2018-05-13T16:03:13.616Z,331
2018-05-13T16:05:05.336Z,275
2018-05-13T16:06:06.954Z,264
2018-05-13T16:07:58.656Z,315
2018-05-13T16:09:00.279Z,303
2018-05-13T16:10:51.991Z,309
2018-05-13T16:11:53.615Z,343
2018-05-13T16:13:45.310Z,382
2018-05-13T16:14:46.939Z,405
2018-05-13T16:16:38.654Z,489
2018-05-13T16:17:40.271Z,489
2018-05-13T16:19:31.974Z,472
2018-05-13T16:20:33.590Z,500
2018-05-13T16:22:25.311Z,540
2018-05-13T16:23:26.939Z,545
2018-05-13T16:25:18.644Z,489
2018-05-13T16:26:20.265Z,427
2018-05-13T16:28:11.984Z,405
2018-05-13T16:29:13.602Z,410
2018-05-13T16:31:05.316Z,427
2018-05-13T16:32:06.936Z,416
2018-05-13T16:33:58.653Z,410
2018-05-13T16:35:00.276Z,472
2018-05-13T16:36:51.976Z,388
2018-05-13T16:37:53.601Z,382
2018-05-13T16:39:45.329Z,309
2018-05-13T16:40:46.945Z,292
2018-05-13T16:42:38.648Z,292
2018-05-13T16:43:40.276Z,309
2018-05-13T16:45:31.998Z,281
2018-05-13T16:46:33.624Z,286
2018-05-13T16:48:25.327Z,264
2018-05-13T16:49:26.950Z,275
2018-05-13T16:51:18.673Z,354
2018-05-13T16:52:20.290Z,388
2018-05-13T16:54:11.995Z,298
2018-05-13T16:55:13.616Z,258
2018-05-13T16:57:05.345Z,275
2018-05-13T16:58:06.967Z,292
2018-05-13T16:59:58.667Z,264
2018-05-13T17:01:00.287Z,253
2018-05-13T17:02:52.036Z,247
2018-05-13T17:03:53.653Z,230
2018-05-13T17:05:45.364Z,225
2018-05-13T17:06:46.984Z,213
2018-05-13T17:08:38.712Z,213
2018-05-13T17:09:40.422Z,213
2018-05-13T17:11:32.040Z,191
2018-05-13T17:12:33.658Z,180
2018-05-13T17:14:25.392Z,202
2018-05-13T17:15:27.016Z,168
2018-05-13T17:17:18.766Z,236
2018-05-13T17:18:20.345Z,230
2018-05-13T17:20:12.068Z,230
2018-05-13T17:21:13.693Z,219
2018-05-13T17:23:05.394Z,191
2018-05-13T17:24:07.022Z,213
2018-05-13T17:25:58.748Z,202
2018-05-13T17:27:00.364Z,208
2018-05-13T17:28:52.063Z,292
2018-05-13T17:29:53.707Z,236
2018-05-13T17:31:45.403Z,253
2018-05-13T17:32:47.024Z,230
2018-05-13T17:34:38.733Z,225
2018-05-13T17:35:40.351Z,230
2018-05-13T17:37:32.103Z,230
2018-05-13T17:38:33.696Z,225
2018-05-13T17:40:25.406Z,247
2018-05-13T17:41:27.026Z,253
2018-05-13T17:43:18.744Z,241
2018-05-13T17:44:20.364Z,253
2018-05-13T17:46:12.071Z,208
2018-05-13T17:47:13.698Z,213
2018-05-13T17:49:05.421Z,191
2018-05-13T17:50:07.040Z,168
2018-05-13T17:51:58.741Z,168
2018-05-13T17:53:00.366Z,146
2018-05-13T17:54:52.094Z,112
2018-05-13T17:55:53.709Z,90
2018-05-13T17:57:45.410Z,67
2018-05-13T17:58:47.027Z,56
2018-05-13T18:00:38.761Z,45
2018-05-13T18:01:40.377Z,39
2018-05-13T18:03:32.077Z,45
2018-05-13T18:04:33.692Z,45
2018-05-13T18:06:25.516Z,50
2018-05-13T18:07:27.132Z,45
2018-05-13T18:09:18.841Z,56
2018-05-13T18:10:20.458Z,61
2018-05-13T18:12:12.197Z,67